Time;durP1;ratioP1;P1;durP2;ratioP2;P2;SDS_P1;SDS_P2;PMS_P1;PMS_P2;Temp;Humidity;BMP_temperature;BMP_pressure;BME280_temperature;BME280_humidity;BME280_pressure;Samples;Min_cycle;Max_cycle;Signal;HPM_P1;HPM_P2
2021/12/07 00:01:25;;;;;;;11.90;4.60;;;5.90;99.90;;;;;;6191066;23;20156;-90
2021/12/07 00:03:52;;;;;;;13.63;4.60;;;5.80;99.90;;;;;;6217853;23;20209;-91
2021/12/07 00:06:18;;;;;;;18.10;4.87;;;5.70;99.90;;;;;;6191257;23;20198;-91
2021/12/07 00:08:44;;;;;;;19.03;6.33;;;5.70;99.90;;;;;;6191495;23;20144;-91
2021/12/07 00:11:11;;;;;;;17.27;4.97;;;5.70;99.90;;;;;;6190816;23;20231;-89
2021/12/07 00:13:39;;;;;;;15.47;5.30;;;5.70;99.90;;;;;;6190798;23;20578;-91
2021/12/07 00:16:08;;;;;;;17.67;4.47;;;5.70;99.90;;;;;;6191146;23;20199;-90
2021/12/07 00:18:34;;;;;;;18.40;5.23;;;5.70;99.90;;;;;;6191531;23;20150;-91
2021/12/07 00:21:01;;;;;;;13.33;4.53;;;5.80;99.90;;;;;;6216330;23;20148;-93
2021/12/07 00:23:27;;;;;;;11.33;4.60;;;5.80;99.90;;;;;;6189533;23;20515;-90
2021/12/07 00:25:52;;;;;;;17.57;4.70;;;5.80;99.90;;;;;;6189259;23;20171;-92
2021/12/07 00:28:21;;;;;;;11.03;4.13;;;5.80;99.90;;;;;;6189940;23;20535;-91
2021/12/07 00:30:48;;;;;;;12.80;4.03;;;5.80;99.90;;;;;;6216471;23;20144;-91
2021/12/07 00:33:41;;;;;;;18.77;4.53;;;5.80;99.90;;;;;;6189239;23;20159;-93
2021/12/07 00:36:03;;;;;;;14.83;4.40;;;5.90;99.90;;;;;;6215678;23;20231;-91
2021/12/07 00:38:30;;;;;;;22.33;5.00;;;5.90;99.90;;;;;;6190054;23;20599;-91
2021/12/07 00:40:58;;;;;;;10.90;4.20;;;5.90;99.90;;;;;;6190130;23;20240;-91
2021/12/07 00:43:25;;;;;;;13.70;4.27;;;6.00;99.90;;;;;;6189802;23;20184;-92
2021/12/07 00:45:54;;;;;;;12.40;4.23;;;6.00;99.90;;;;;;6189976;23;20172;-91
2021/12/07 00:48:20;;;;;;;17.00;3.87;;;6.00;99.90;;;;;;6189883;23;20140;-91
2021/12/07 00:50:48;;;;;;;26.43;6.77;;;6.00;99.90;;;;;;6189986;23;20158;-91
2021/12/07 00:53:41;;;;;;;17.97;4.53;;;6.00;99.90;;;;;;6189623;23;20151;-94
2021/12/07 00:57:06;;;;;;;;;;;;;;;;;;;;;
2021/12/07 01:00:28;;;;;;;;;;;;;;;;;;;;;
2021/12/07 01:03:43;;;;;;;21.57;4.73;;;6.00;99.90;;;;;;6190169;23;20227;-94
2021/12/07 04:09:32;;;;;;;11.30;2.17;;;5.30;99.90;;;;;;6247456;22;1303696;-86
2021/12/07 04:11:58;;;;;;;7.37;1.67;;;5.30;99.90;;;;;;6308946;22;20134;-87
2021/12/07 04:14:23;;;;;;;9.47;2.10;;;5.30;99.90;;;;;;6309041;22;20649;-86
2021/12/07 04:16:49;;;;;;;14.70;2.20;;;5.20;99.90;;;;;;6306884;22;20146;-86
2021/12/07 04:19:15;;;;;;;8.33;2.00;;;5.30;99.90;;;;;;6307008;22;20152;-86
2021/12/07 04:21:40;;;;;;;13.63;2.30;;;5.20;99.90;;;;;;6308619;22;20146;-87
2021/12/07 04:24:06;;;;;;;8.20;1.70;;;5.20;99.90;;;;;;6308473;22;20150;-86
2021/12/07 04:26:31;;;;;;;10.50;2.33;;;5.10;99.90;;;;;;6307223;22;20149;-86
2021/12/07 04:28:57;;;;;;;8.67;1.80;;;5.10;99.90;;;;;;6308529;22;20146;-86
2021/12/07 04:31:23;;;;;;;12.40;2.30;;;5.20;99.90;;;;;;6307485;22;20581;-85
2021/12/07 04:33:49;;;;;;;8.50;1.50;;;5.20;99.90;;;;;;6308440;22;20166;-86
2021/12/07 04:36:15;;;;;;;9.30;1.97;;;5.10;99.90;;;;;;6307388;22;20141;-85
2021/12/07 04:38:40;;;;;;;11.43;2.40;;;5.10;99.90;;;;;;6306867;22;20229;-86
2021/12/07 04:41:07;;;;;;;11.20;2.10;;;5.10;99.90;;;;;;6306789;22;20145;-88
2021/12/07 04:43:36;;;;;;;8.80;1.90;;;5.10;99.90;;;;;;6306705;22;20260;-87
2021/12/07 04:46:23;;;;;;;15.03;2.30;;;5.10;99.90;;;;;;6308857;22;20141;-87
2021/12/07 04:59:41;;;;;;;10.63;3.50;;;5.10;99.90;;;;;;6308244;22;20227;-88
2021/12/07 05:02:07;;;;;;;10.33;1.97;;;5.10;99.90;;;;;;6306630;22;20138;-88
2021/12/07 05:04:35;;;;;;;13.53;3.93;;;5.10;99.90;;;;;;6306930;22;20251;-88
2021/12/07 05:07:17;;;;;;;15.33;3.30;;;5.20;99.90;;;;;;6308557;22;20140;-88
2021/12/07 05:12:28;;;;;;;9.33;2.00;;;5.20;99.90;;;;;;6318803;22;20138;-87
2021/12/07 05:15:02;;;;;;;12.00;2.20;;;5.20;99.90;;;;;;6306387;22;20180;-83
2021/12/07 05:17:55;;;;;;;7.53;2.70;;;5.20;99.90;;;;;;6305963;22;20149;-83
2021/12/07 05:39:27;;;;;;;9.80;2.60;;;4.80;99.90;;;;;;6289108;22;20176;-83
2021/12/07 05:41:53;;;;;;;18.07;2.97;;;4.80;99.90;;;;;;6305869;22;20219;-83
2021/12/07 05:44:19;;;;;;;10.07;2.33;;;4.90;99.90;;;;;;6307008;22;20130;-81
2021/12/07 05:46:44;;;;;;;8.53;2.30;;;4.80;99.90;;;;;;6307509;22;20192;-82
2021/12/07 05:49:10;;;;;;;13.93;3.37;;;4.80;99.90;;;;;;6307657;22;20134;-83
2021/12/07 05:51:35;;;;;;;12.47;2.83;;;4.80;99.90;;;;;;6307268;22;20134;-82
2021/12/07 05:54:01;;;;;;;11.67;2.50;;;4.80;99.90;;;;;;6305953;22;20558;-84
2021/12/07 05:56:27;;;;;;;7.40;2.20;;;4.80;99.90;;;;;;6305860;22;20146;-82
2021/12/07 05:58:52;;;;;;;8.27;2.27;;;4.70;99.90;;;;;;6305572;22;20217;-83
2021/12/07 06:01:18;;;;;;;13.53;2.77;;;4.80;99.90;;;;;;6305542;22;20138;-83
2021/12/07 06:03:43;;;;;;;10.37;2.33;;;4.80;99.90;;;;;;6305728;22;20260;-83
2021/12/07 06:06:09;;;;;;;13.27;2.80;;;4.80;99.90;;;;;;6305499;22;20164;-82
2021/12/07 06:08:34;;;;;;;13.80;3.17;;;4.80;99.90;;;;;;6305601;22;20200;-82
2021/12/07 06:11:00;;;;;;;13.17;2.93;;;4.80;99.90;;;;;;6305734;22;20182;-82
2021/12/07 06:13:26;;;;;;;15.80;2.70;;;4.70;99.90;;;;;;6305341;22;20480;-82
2021/12/07 06:15:52;;;;;;;18.30;2.90;;;4.80;99.90;;;;;;6305394;22;20185;-84
2021/12/07 06:18:17;;;;;;;11.27;2.10;;;4.70;99.90;;;;;;6305983;22;20612;-83
2021/12/07 06:20:43;;;;;;;11.57;2.67;;;4.70;99.90;;;;;;6305439;22;20148;-82
2021/12/07 06:23:17;;;;;;;12.83;2.97;;;4.70;99.90;;;;;;6305837;22;20150;-83
2021/12/07 06:25:44;;;;;;;10.83;2.83;;;4.70;99.90;;;;;;6305366;22;20191;-82
2021/12/07 06:28:10;;;;;;;13.93;2.80;;;4.70;99.90;;;;;;6305136;22;20142;-82
2021/12/07 06:30:36;;;;;;;14.87;3.20;;;4.70;99.90;;;;;;6305663;22;20168;-82
2021/12/07 06:33:02;;;;;;;11.93;2.60;;;4.70;99.90;;;;;;6305379;22;20607;-83
2021/12/07 06:35:27;;;;;;;11.53;2.87;;;4.70;99.90;;;;;;6305180;22;20146;-83
2021/12/07 06:37:53;;;;;;;15.87;3.63;;;4.60;99.90;;;;;;6307073;22;20176;-82
2021/12/07 06:40:19;;;;;;;14.37;3.27;;;4.60;99.90;;;;;;6306315;22;20154;-82
2021/12/07 06:42:44;;;;;;;12.80;2.73;;;4.60;99.90;;;;;;6307141;22;20601;-82
2021/12/07 06:45:11;;;;;;;8.90;2.00;;;4.70;99.90;;;;;;6307317;22;20233;-82
2021/12/07 06:47:37;;;;;;;14.00;2.73;;;4.80;99.90;;;;;;6307068;22;20142;-83
2021/12/07 06:50:05;;;;;;;11.13;2.70;;;4.80;99.90;;;;;;6307763;22;20149;-87
2021/12/07 06:52:31;;;;;;;12.20;3.00;;;4.80;99.90;;;;;;6309237;22;20138;-87
2021/12/07 06:54:58;;;;;;;19.40;4.03;;;4.70;99.90;;;;;;6307957;22;20149;-87
2021/12/07 06:57:24;;;;;;;11.70;2.80;;;4.70;99.90;;;;;;6309335;22;20133;-87
2021/12/07 06:59:50;;;;;;;10.80;2.67;;;4.70;99.90;;;;;;6308663;22;20141;-87
2021/12/07 07:02:16;;;;;;;12.40;3.07;;;4.70;99.90;;;;;;6308063;22;20183;-87
2021/12/07 07:04:41;;;;;;;12.37;2.57;;;4.70;99.90;;;;;;6309415;22;20138;-88
2021/12/07 07:07:08;;;;;;;16.30;3.57;;;4.70;99.90;;;;;;6309053;22;20196;-87
2021/12/07 07:09:33;;;;;;;12.60;2.97;;;4.70;99.90;;;;;;6307926;22;20174;-85
2021/12/07 07:11:59;;;;;;;17.70;3.37;;;4.60;99.90;;;;;;6309078;22;20134;-88
2021/12/07 07:14:25;;;;;;;15.20;3.00;;;4.70;99.90;;;;;;6309021;22;20186;-87
2021/12/07 07:16:50;;;;;;;10.33;2.90;;;4.70;99.90;;;;;;6307610;22;20585;-87
2021/12/07 07:19:16;;;;;;;20.60;3.53;;;4.70;99.90;;;;;;6309416;22;20134;-87
2021/12/07 07:21:41;;;;;;;12.33;2.63;;;4.70;99.90;;;;;;6307904;22;20602;-87
2021/12/07 14:21:53;;;;;;;8.20;2.90;;;7.50;99.90;;;;;;6250214;22;20186;-76
2021/12/07 14:24:20;;;;;;;11.00;3.20;;;7.50;99.90;;;;;;6279410;22;20154;-77
2021/12/07 14:26:47;;;;;;;7.93;2.90;;;7.60;99.90;;;;;;6279013;22;20583;-76
2021/12/07 14:29:21;;;;;;;5.77;2.50;;;7.70;99.90;;;;;;6307052;22;20135;-77
2021/12/07 14:31:55;;;;;;;11.60;3.23;;;7.70;99.90;;;;;;6306816;22;20141;-77
2021/12/07 14:34:27;;;;;;;10.90;6.20;;;7.70;99.90;;;;;;6306698;22;20170;-76
2021/12/07 14:37:07;;;;;;;17.30;10.47;;;7.50;99.90;;;;;;6306794;22;20186;-76
2021/12/07 14:39:36;;;;;;;8.60;5.03;;;7.50;99.90;;;;;;6307008;22;20137;-76
2021/12/07 14:42:11;;;;;;;12.33;4.30;;;7.40;99.90;;;;;;6278931;22;20145;-80
2021/12/07 14:44:40;;;;;;;11.33;7.37;;;7.30;99.90;;;;;;6306816;22;20134;-77
2021/12/07 14:47:07;;;;;;;67.30;37.27;;;7.20;99.90;;;;;;6306564;22;20134;-77
2021/12/07 14:49:36;;;;;;;11.10;5.10;;;7.20;99.90;;;;;;6279600;22;20213;-77
2021/12/07 14:52:08;;;;;;;8.27;3.27;;;7.20;99.90;;;;;;6306767;22;20159;-77
2021/12/07 14:54:34;;;;;;;5.63;2.17;;;7.20;99.90;;;;;;6306804;22;20574;-76
2021/12/07 14:57:00;;;;;;;8.70;2.90;;;7.20;99.90;;;;;;6306415;22;20130;-77
2021/12/07 14:59:25;;;;;;;5.83;2.80;;;7.20;99.90;;;;;;6306359;22;20169;-79
2021/12/07 22:15:02;;;;;;;5.13;1.97;;;7.40;99.90;;;;;;6258965;22;20490;-91
2021/12/07 22:17:28;;;;;;;3.10;1.70;;;7.50;99.90;;;;;;6311443;22;20617;-89
2021/12/07 22:19:54;;;;;;;3.53;1.87;;;7.50;99.90;;;;;;6283631;22;20146;-88
2021/12/07 22:22:20;;;;;;;5.80;1.70;;;7.40;99.90;;;;;;6311538;22;20146;-91
2021/12/07 22:24:45;;;;;;;3.43;1.47;;;7.30;99.90;;;;;;6283156;22;20150;-90
2021/12/07 22:27:12;;;;;;;2.47;1.60;;;7.30;99.90;;;;;;6284470;22;20220;-91
2021/12/07 22:29:39;;;;;;;2.73;1.40;;;7.40;99.90;;;;;;6284627;22;20177;-92
2021/12/07 22:32:07;;;;;;;1.73;1.20;;;7.50;99.90;;;;;;6285432;22;20191;-92
2021/12/07 22:34:33;;;;;;;4.57;1.73;;;7.60;99.90;;;;;;6284248;22;20217;-91
2021/12/07 22:37:00;;;;;;;1.67;1.20;;;7.60;99.90;;;;;;6311112;22;20138;-93
2021/12/07 22:39:30;;;;;;;2.70;1.37;;;7.60;99.90;;;;;;6283924;22;20149;-92
2021/12/07 22:41:57;;;;;;;3.63;1.20;;;7.60;99.90;;;;;;6284420;22;20157;-91
2021/12/07 22:44:23;;;;;;;1.07;0.90;;;7.70;99.90;;;;;;6311303;22;20146;-92
2021/12/07 22:46:49;;;;;;;3.53;1.00;;;7.70;99.90;;;;;;6311182;22;20150;-92
2021/12/07 22:49:16;;;;;;;2.07;1.30;;;7.80;99.90;;;;;;6283919;22;20146;-90
2021/12/07 22:51:42;;;;;;;2.13;1.10;;;7.80;99.90;;;;;;6311565;22;20142;-84
2021/12/07 22:54:08;;;;;;;1.63;0.90;;;7.80;99.90;;;;;;6283438;22;20188;-91
2021/12/07 22:56:33;;;;;;;1.63;1.10;;;7.80;99.90;;;;;;6283663;22;20146;-88
2021/12/07 22:58:59;;;;;;;2.10;0.90;;;7.90;99.90;;;;;;6284207;22;20154;-90
2021/12/07 23:01:25;;;;;;;1.67;0.80;;;8.00;99.90;;;;;;6311822;22;20506;-91
2021/12/07 23:03:51;;;;;;;1.53;1.07;;;8.10;99.90;;;;;;6311412;22;20597;-92
2021/12/07 23:06:17;;;;;;;0.80;0.70;;;8.10;99.90;;;;;;6310774;22;20153;-91
2021/12/07 23:08:44;;;;;;;2.20;1.10;;;8.20;99.90;;;;;;6310894;22;20478;-91
2021/12/07 23:11:10;;;;;;;1.50;1.07;;;8.20;99.90;;;;;;6283627;22;20204;-92
2021/12/07 23:13:39;;;;;;;2.77;1.00;;;8.20;99.90;;;;;;6286971;22;20186;-91
2021/12/07 23:16:06;;;;;;;2.53;1.10;;;8.20;99.90;;;;;;6253081;22;20162;-90
2021/12/07 23:18:32;;;;;;;2.37;0.97;;;8.20;99.90;;;;;;6253729;22;20159;-91
2021/12/07 23:21:01;;;;;;;1.93;1.00;;;8.20;99.90;;;;;;6280256;22;20196;-91
2021/12/07 23:23:29;;;;;;;3.80;1.20;;;8.20;99.90;;;;;;6253508;22;20150;-91
2021/12/07 23:25:56;;;;;;;2.17;1.07;;;8.30;99.90;;;;;;6280041;22;20223;-91
2021/12/07 23:28:27;;;;;;;4.53;1.63;;;8.40;99.90;;;;;;6280022;22;20142;-89
2021/12/07 23:30:56;;;;;;;4.43;1.40;;;8.30;99.90;;;;;;6279593;22;20212;-91
2021/12/07 23:33:22;;;;;;;2.57;1.20;;;8.30;99.90;;;;;;6279816;22;20265;-92
2021/12/07 23:35:50;;;;;;;4.13;1.23;;;8.30;99.90;;;;;;6279690;22;20150;-92
2021/12/07 23:38:16;;;;;;;7.33;1.53;;;8.20;99.90;;;;;;6252705;22;20143;-92
2021/12/07 23:40:44;;;;;;;6.03;1.93;;;8.30;99.90;;;;;;6279548;22;20649;-91
2021/12/07 23:43:11;;;;;;;6.00;1.63;;;8.30;99.90;;;;;;6253237;22;20189;-92
2021/12/07 23:45:37;;;;;;;7.63;1.90;;;8.30;99.90;;;;;;6253037;22;20162;-91
2021/12/07 23:48:03;;;;;;;5.20;1.80;;;8.30;99.90;;;;;;6252454;22;20241;-91
2021/12/07 23:50:29;;;;;;;4.73;1.67;;;8.20;99.90;;;;;;6252804;22;20221;-91
2021/12/07 23:52:55;;;;;;;5.30;1.67;;;8.20;99.90;;;;;;6278711;22;20171;-90
2021/12/07 23:55:21;;;;;;;8.83;2.00;;;8.20;99.90;;;;;;6279216;22;20315;-91
2021/12/07 23:57:48;;;;;;;5.47;1.80;;;8.20;99.90;;;;;;6252498;22;20147;-86
